Time;durP1;ratioP1;P1;durP2;ratioP2;P2;SDS_P1;SDS_P2;PMS_P1;PMS_P2;Temp;Humidity;BMP_temperature;BMP_pressure;BME280_temperature;BME280_humidity;BME280_pressure;Samples;Min_cycle;Max_cycle;Signal;HPM_P1;HPM_P2
2021/04/25 00:02:18;;;;;;;16.05;8.30;;;;;;;3.36;62.41;95748.56;5037915;28;20522;-71
2021/04/25 00:04:43;;;;;;;16.88;8.77;;;;;;;3.26;63.06;95754.28;5040281;28;20484;-70
2021/04/25 00:07:09;;;;;;;24.65;10.10;;;;;;;3.16;63.24;95751.38;5041105;28;20041;-71
2021/04/25 00:09:35;;;;;;;17.67;7.78;;;;;;;3.06;64.16;95741.47;5044648;28;20047;-70
2021/04/25 00:12:01;;;;;;;14.40;7.00;;;;;;;2.92;64.45;95735.59;5046823;28;20472;-71
2021/04/25 00:14:27;;;;;;;17.35;8.13;;;;;;;2.85;64.47;95740.06;5048753;28;20456;-71
2021/04/25 00:16:53;;;;;;;19.90;8.90;;;;;;;2.80;64.50;95739.91;5048545;28;20056;-70
2021/04/25 00:19:19;;;;;;;13.48;7.47;;;;;;;2.79;64.84;95725.34;5046755;28;20038;-70
2021/04/25 00:21:44;;;;;;;17.48;7.55;;;;;;;2.77;64.31;95727.34;5036741;28;20041;-70
2021/04/25 00:24:10;;;;;;;17.75;8.77;;;;;;;2.68;64.96;95728.66;5047454;28;20045;-70
2021/04/25 00:26:36;;;;;;;14.35;7.00;;;;;;;2.67;65.43;95727.03;5031248;28;20503;-71
2021/04/25 00:29:03;;;;;;;12.23;6.40;;;;;;;2.78;65.04;95723.75;5031249;28;20045;-70
2021/04/25 00:31:29;;;;;;;13.98;6.97;;;;;;;2.56;65.56;95721.53;5031529;28;20494;-70
2021/04/25 00:33:54;;;;;;;13.90;6.15;;;;;;;2.46;65.48;95710.84;5038823;28;20037;-71
2021/04/25 00:36:20;;;;;;;10.70;6.18;;;;;;;2.48;65.45;95719.22;5045824;28;20497;-70
2021/04/25 00:38:45;;;;;;;16.80;8.55;;;;;;;2.48;65.57;95714.00;5047518;28;20399;-70
2021/04/25 00:41:11;;;;;;;18.52;8.73;;;;;;;2.38;65.72;95719.69;5043137;28;20064;-70
2021/04/25 00:43:37;;;;;;;17.38;8.65;;;;;;;2.44;65.45;95712.84;5045583;28;20033;-71
2021/04/25 00:46:02;;;;;;;16.88;7.40;;;;;;;2.47;65.66;95706.44;5038328;28;20072;-70
2021/04/25 00:48:28;;;;;;;16.90;6.70;;;;;;;2.38;65.25;95705.91;5045916;28;20047;-70
2021/04/25 00:50:54;;;;;;;12.52;5.85;;;;;;;2.27;65.70;95706.59;5037679;28;20490;-70
2021/04/25 00:53:21;;;;;;;10.80;5.70;;;;;;;2.18;66.47;95699.06;5038144;28;20050;-70
2021/04/25 00:55:47;;;;;;;15.38;6.07;;;;;;;2.14;66.74;95708.28;5032079;28;20120;-70
2021/04/25 00:58:13;;;;;;;16.75;6.95;;;;;;;2.19;66.49;95713.63;5049581;28;20048;-71
2021/04/25 01:00:39;;;;;;;14.73;6.72;;;;;;;2.29;66.45;95714.97;5030559;28;20461;-70
2021/04/25 01:03:04;;;;;;;14.73;6.15;;;;;;;2.22;66.42;95718.41;5046272;28;20042;-69
2021/04/25 01:05:30;;;;;;;12.30;6.53;;;;;;;2.13;66.92;95727.47;5029538;28;20082;-70
2021/04/25 01:07:56;;;;;;;15.35;6.80;;;;;;;2.08;67.15;95724.69;5036286;28;20037;-69
2021/04/25 01:10:22;;;;;;;12.18;6.53;;;;;;;2.01;67.18;95721.34;5033655;28;20124;-70
2021/04/25 01:12:47;;;;;;;16.55;6.78;;;;;;;2.04;67.33;95720.94;5037064;28;20034;-70
2021/04/25 01:15:16;;;;;;;14.50;6.18;;;;;;;1.95;68.01;95724.78;5030331;28;20120;-70
2021/04/25 01:17:44;;;;;;;12.45;5.90;;;;;;;2.00;67.68;95722.38;5030797;28;20038;-70
2021/04/25 01:20:13;;;;;;;16.02;6.25;;;;;;;1.98;67.83;95724.38;5030827;28;20050;-70
2021/04/25 01:22:38;;;;;;;13.73;5.82;;;;;;;1.98;67.64;95725.16;5030820;28;20049;-71
2021/04/25 01:25:09;;;;;;;13.63;5.45;;;;;;;1.98;67.37;95719.19;5030106;28;20044;-70
2021/04/25 01:27:34;;;;;;;13.23;6.15;;;;;;;1.88;68.00;95730.81;5039990;28;20552;-71
2021/04/25 01:30:02;;;;;;;13.77;6.20;;;;;;;1.87;68.32;95723.25;5048762;28;20052;-70
2021/04/25 01:32:29;;;;;;;15.82;6.05;;;;;;;1.93;67.93;95730.19;5045504;28;20134;-70
2021/04/25 01:34:55;;;;;;;12.85;5.50;;;;;;;1.88;68.22;95736.00;5023283;28;20049;-69
2021/04/25 01:37:22;;;;;;;13.15;6.20;;;;;;;1.84;68.58;95734.84;5041619;28;20234;-70
2021/04/25 01:39:50;;;;;;;16.48;8.25;;;;;;;1.85;68.84;95726.06;5036237;28;20046;-70
2021/04/25 01:42:15;;;;;;;19.13;8.15;;;;;;;1.72;69.13;95731.28;5032924;28;20061;-70
2021/04/25 01:44:41;;;;;;;16.63;7.50;;;;;;;1.77;68.92;95739.25;5048106;28;20490;-70
2021/04/25 01:47:06;;;;;;;20.02;7.93;;;;;;;1.69;69.06;95731.72;5032499;28;20045;-70
2021/04/25 01:49:32;;;;;;;17.33;7.85;;;;;;;1.69;69.31;95727.31;5041499;28;20048;-71
2021/04/25 01:51:58;;;;;;;18.30;8.13;;;;;;;1.64;69.49;95734.13;5038622;28;20042;-70
2021/04/25 01:54:24;;;;;;;16.48;7.07;;;;;;;1.63;69.47;95732.56;5030641;28;20042;-70
2021/04/25 01:56:49;;;;;;;16.45;6.80;;;;;;;1.64;69.01;95739.31;5032850;28;20044;-70
2021/04/25 01:59:15;;;;;;;12.85;5.78;;;;;;;1.69;69.38;95736.91;5039992;28;20061;-70
2021/04/25 02:01:40;;;;;;;16.88;7.03;;;;;;;1.66;69.70;95732.13;5032167;28;20034;-70
2021/04/25 02:04:06;;;;;;;14.60;6.97;;;;;;;1.72;69.54;95731.28;5037693;28;20163;-71
2021/04/25 02:06:35;;;;;;;16.92;6.75;;;;;;;1.77;69.51;95728.88;5029597;28;20049;-69
2021/04/25 02:09:01;;;;;;;17.00;6.82;;;;;;;1.88;69.74;95720.44;5040172;28;20098;-70
2021/04/25 02:11:26;;;;;;;17.40;7.35;;;;;;;1.98;69.26;95729.56;5049515;28;20491;-70
2021/04/25 02:13:52;;;;;;;13.65;7.68;;;;;;;1.96;69.50;95716.78;5033611;28;20041;-70
2021/04/25 02:16:17;;;;;;;19.38;7.47;;;;;;;1.98;69.78;95722.56;5030070;28;20395;-70
2021/04/25 02:18:43;;;;;;;15.90;6.50;;;;;;;2.16;68.63;95721.84;5041299;28;20037;-71
2021/04/25 02:21:08;;;;;;;14.88;7.95;;;;;;;2.28;68.68;95731.56;5030245;28;20042;-70
2021/04/25 02:23:34;;;;;;;16.48;7.13;;;;;;;2.34;68.27;95725.50;5039675;28;20508;-70
2021/04/25 02:26:00;;;;;;;17.80;7.05;;;;;;;2.41;67.96;95723.66;5049035;28;20045;-71
2021/04/25 02:28:25;;;;;;;14.57;6.97;;;;;;;2.46;68.12;95726.44;5049067;28;20053;-70
2021/04/25 02:30:51;;;;;;;14.93;7.25;;;;;;;2.51;68.17;95720.59;5033881;28;20045;-70
2021/04/25 02:33:16;;;;;;;14.65;7.00;;;;;;;2.65;67.60;95723.88;5033305;28;20510;-71
2021/04/25 02:35:42;;;;;;;18.92;6.05;;;;;;;2.69;66.92;95725.03;5033315;28;20041;-70
2021/04/25 02:38:08;;;;;;;13.77;6.15;;;;;;;2.62;67.11;95729.50;5039728;28;20071;-70
2021/04/25 02:40:35;;;;;;;14.32;6.55;;;;;;;2.62;67.29;95732.09;5053452;28;20037;-70
2021/04/25 02:43:02;;;;;;;16.05;7.07;;;;;;;2.65;67.33;95729.06;5051463;28;20041;-70
2021/04/25 02:45:28;;;;;;;14.13;6.78;;;;;;;2.65;67.44;95739.47;5039824;28;20065;-70
2021/04/25 02:48:00;;;;;;;13.20;6.85;;;;;;;2.52;67.90;95735.97;5035538;28;20037;-71
2021/04/25 02:50:29;;;;;;;12.43;6.68;;;;;;;2.58;68.13;95729.91;5032145;28;20052;-70
2021/04/25 02:52:54;;;;;;;15.95;6.10;;;;;;;2.53;68.22;95736.75;5032914;28;20095;-70
2021/04/25 02:55:20;;;;;;;13.55;6.00;;;;;;;2.47;68.25;95733.22;5036046;28;20053;-70
2021/04/25 02:57:46;;;;;;;16.60;7.03;;;;;;;2.39;69.27;95726.47;5046521;28;20042;-70
2021/04/25 03:00:15;;;;;;;11.98;5.95;;;;;;;2.47;68.77;95730.63;5043766;28;20045;-70
2021/04/25 03:02:41;;;;;;;15.38;6.45;;;;;;;2.45;68.29;95727.44;5032228;28;20041;-70
2021/04/25 03:05:07;;;;;;;13.95;6.47;;;;;;;2.45;68.90;95730.03;5032227;28;20491;-70
2021/04/25 03:07:33;;;;;;;15.85;6.43;;;;;;;2.40;69.10;95729.88;5042360;28;20099;-70
2021/04/25 03:09:58;;;;;;;18.63;6.78;;;;;;;2.37;69.22;95727.69;5038255;28;20048;-70
2021/04/25 03:12:24;;;;;;;14.60;6.72;;;;;;;2.22;69.86;95731.38;5047396;28;20045;-71
2021/04/25 03:14:49;;;;;;;15.35;6.68;;;;;;;2.27;69.81;95729.97;5032516;28;20033;-71
2021/04/25 03:17:15;;;;;;;16.30;7.07;;;;;;;2.29;69.70;95730.56;5044218;28;20044;-70
2021/04/25 03:19:40;;;;;;;16.23;6.82;;;;;;;2.19;69.91;95731.03;5035327;28;20072;-71
2021/04/25 03:22:06;;;;;;;14.43;6.15;;;;;;;2.21;70.15;95734.19;5033005;28;20048;-70
2021/04/25 03:24:32;;;;;;;13.60;6.82;;;;;;;2.27;69.73;95737.75;5031308;28;20491;-70
2021/04/25 03:26:59;;;;;;;15.98;6.90;;;;;;;2.21;69.92;95729.81;5037342;28;20034;-71
2021/04/25 03:29:24;;;;;;;14.68;6.10;;;;;;;2.16;70.30;95737.44;5048606;28;20116;-70
2021/04/25 03:31:50;;;;;;;16.60;6.40;;;;;;;2.21;70.08;95740.19;5052685;28;20048;-70
2021/04/25 03:34:15;;;;;;;11.95;6.50;;;;;;;2.17;70.51;95733.84;5050601;28;20033;-71
2021/04/25 03:36:41;;;;;;;15.88;6.50;;;;;;;2.20;70.60;95728.22;5040988;28;20402;-71
2021/04/25 03:39:07;;;;;;;14.85;6.95;;;;;;;2.17;70.75;95731.25;5045554;28;20048;-70
2021/04/25 03:41:33;;;;;;;14.90;6.35;;;;;;;2.19;70.62;95721.44;5032717;28;20041;-70
2021/04/25 03:43:58;;;;;;;19.25;7.13;;;;;;;2.30;70.46;95721.75;5032538;28;20457;-70
2021/04/25 03:46:24;;;;;;;15.45;6.72;;;;;;;2.31;70.04;95720.75;5031834;28;20037;-70
2021/04/25 03:48:50;;;;;;;15.23;7.22;;;;;;;2.32;70.06;95717.16;5048138;28;20391;-70
2021/04/25 03:51:16;;;;;;;14.75;6.20;;;;;;;2.23;70.43;95722.59;5044281;28;20044;-70
2021/04/25 03:53:42;;;;;;;14.18;6.72;;;;;;;2.23;70.32;95716.63;5037433;28;20380;-70
2021/04/25 03:56:07;;;;;;;14.23;6.55;;;;;;;2.21;70.47;95714.25;5039438;28;20087;-71
2021/04/25 03:58:33;;;;;;;13.02;6.68;;;;;;;2.24;70.24;95718.19;5043455;28;20049;-70
2021/04/25 04:00:59;;;;;;;18.60;7.82;;;;;;;2.24;70.63;95723.38;5032134;28;20049;-70
2021/04/25 04:03:24;;;;;;;15.23;6.97;;;;;;;2.13;71.00;95722.28;5031891;28;20045;-70
2021/04/25 04:05:50;;;;;;;15.32;7.35;;;;;;;1.96;71.60;95727.19;5031928;28;20071;-70
2021/04/25 04:08:15;;;;;;;14.63;7.50;;;;;;;1.93;71.80;95727.59;5034983;28;20041;-71
2021/04/25 04:10:41;;;;;;;12.05;6.55;;;;;;;1.94;71.97;95728.38;5044903;28;20399;-70
2021/04/25 04:13:06;;;;;;;18.80;7.07;;;;;;;1.99;71.87;95721.56;5039226;28;20037;-70
2021/04/25 04:15:32;;;;;;;15.75;7.45;;;;;;;1.93;72.38;95722.41;5032082;28;20041;-70
2021/04/25 04:17:57;;;;;;;16.83;6.78;;;;;;;1.90;72.70;95725.41;5043996;28;20489;-70
2021/04/25 04:20:23;;;;;;;13.25;6.85;;;;;;;1.90;72.33;95712.44;5042886;28;20103;-70
2021/04/25 04:22:48;;;;;;;14.75;6.78;;;;;;;2.01;72.17;95723.94;5031667;28;20384;-70
2021/04/25 04:25:14;;;;;;;17.30;7.47;;;;;;;1.94;72.35;95728.38;5030467;28;20041;-70
2021/04/25 04:27:40;;;;;;;17.70;7.72;;;;;;;1.95;72.44;95729.97;5041872;28;20045;-71
2021/04/25 04:30:06;;;;;;;12.40;6.68;;;;;;;1.87;72.54;95734.41;5045108;28;20049;-71
2021/04/25 04:32:32;;;;;;;15.02;7.20;;;;;;;1.92;72.32;95735.59;5046233;28;20102;-70
2021/04/25 04:34:58;;;;;;;15.32;7.10;;;;;;;1.99;72.21;95741.53;5046560;28;20490;-70
2021/04/25 04:37:24;;;;;;;16.98;6.75;;;;;;;2.03;72.35;95742.72;5037778;28;20041;-70
2021/04/25 04:39:49;;;;;;;14.98;7.10;;;;;;;2.00;72.17;95750.94;5038018;28;20479;-71
2021/04/25 04:42:15;;;;;;;15.05;6.60;;;;;;;1.99;71.98;95754.53;5041700;28;20033;-69
2021/04/25 04:44:40;;;;;;;15.15;6.43;;;;;;;1.89;72.47;95753.16;5043120;28;20029;-70
2021/04/25 04:47:06;;;;;;;15.82;7.57;;;;;;;1.87;73.22;95764.78;5035146;28;20494;-70
2021/04/25 04:49:32;;;;;;;14.30;7.03;;;;;;;1.96;73.65;95767.91;5047625;28;20383;-71
2021/04/25 04:51:57;;;;;;;17.05;6.97;;;;;;;2.24;72.26;95770.94;5032529;28;20412;-70
2021/04/25 04:54:23;;;;;;;14.75;7.15;;;;;;;2.38;71.74;95760.44;5031210;28;20037;-71
2021/04/25 04:56:48;;;;;;;13.98;7.05;;;;;;;2.29;72.55;95756.53;5038590;28;20034;-71
2021/04/25 04:59:14;;;;;;;17.20;7.72;;;;;;;2.37;72.37;95753.66;5040895;28;20429;-70
2021/04/25 05:01:39;;;;;;;15.27;7.47;;;;;;;2.44;71.78;95754.41;5048611;28;20410;-70
2021/04/25 05:04:05;;;;;;;18.33;7.28;;;;;;;2.42;72.34;95761.63;5042879;28;20120;-70
2021/04/25 05:06:30;;;;;;;16.77;7.47;;;;;;;2.44;71.90;95759.59;5030703;28;20052;-70
2021/04/25 05:08:56;;;;;;;16.42;7.82;;;;;;;2.47;71.84;95764.41;5041505;28;20049;-71
2021/04/25 05:11:22;;;;;;;17.10;7.20;;;;;;;2.59;72.13;95762.69;5034374;28;20116;-70
2021/04/25 05:13:47;;;;;;;15.27;7.55;;;;;;;2.75;71.37;95765.75;5030623;28;20036;-70
2021/04/25 05:16:13;;;;;;;15.98;8.00;;;;;;;2.93;71.15;95772.78;5041014;28;20045;-70
2021/04/25 05:18:40;;;;;;;15.80;8.48;;;;;;;3.16;70.36;95782.59;5045966;28;20114;-70
2021/04/25 05:21:06;;;;;;;15.90;7.72;;;;;;;3.22;70.57;95786.94;5041633;28;20041;-70
2021/04/25 05:23:32;;;;;;;17.17;7.68;;;;;;;3.29;71.01;95787.66;5038473;28;20099;-70
2021/04/25 05:25:58;;;;;;;18.75;8.50;;;;;;;3.46;70.63;95781.88;5032657;28;20042;-70
2021/04/25 05:28:23;;;;;;;20.90;9.35;;;;;;;3.79;69.30;95785.88;5031713;28;20042;-70
2021/04/25 05:30:49;;;;;;;17.83;8.82;;;;;;;3.93;68.95;95787.31;5030915;28;20442;-70
2021/04/25 05:33:15;;;;;;;16.80;9.35;;;;;;;4.15;68.52;95784.22;5040893;28;20033;-70
2021/04/25 05:35:40;;;;;;;21.48;10.55;;;;;;;4.31;67.96;95794.03;5046121;28;20037;-70
2021/04/25 05:38:06;;;;;;;24.73;11.57;;;;;;;4.51;67.48;95792.94;5037644;28;20041;-71
2021/04/25 05:40:32;;;;;;;26.92;10.57;;;;;;;4.62;66.86;95783.56;5042272;28;20041;-70
2021/04/25 05:42:57;;;;;;;19.85;10.90;;;;;;;4.75;66.65;95788.56;5043894;28;20080;-70
2021/04/25 05:45:23;;;;;;;23.55;10.98;;;;;;;4.73;67.25;95800.25;5029180;28;20048;-70
2021/04/25 05:47:54;;;;;;;21.13;11.10;;;;;;;4.87;66.71;95799.03;5041847;28;20509;-70
2021/04/25 05:50:21;;;;;;;22.58;11.45;;;;;;;5.09;65.76;95807.06;5050519;28;20487;-70
2021/04/25 05:52:47;;;;;;;21.55;11.05;;;;;;;5.07;66.17;95810.91;5043402;28;20422;-71
2021/04/25 05:55:14;;;;;;;24.50;12.40;;;;;;;5.12;66.47;95809.22;5045709;28;20037;-71
2021/04/25 05:57:40;;;;;;;27.73;12.75;;;;;;;5.17;66.03;95811.13;5038003;28;20033;-71
2021/04/25 06:00:07;;;;;;;26.05;12.15;;;;;;;5.11;66.75;95806.84;5047746;28;20046;-71
2021/04/25 06:02:33;;;;;;;25.27;14.02;;;;;;;5.28;66.15;95812.97;5041434;28;20116;-71
2021/04/25 06:04:59;;;;;;;28.88;13.90;;;;;;;5.22;66.64;95808.66;5033122;28;20543;-70
2021/04/25 06:07:24;;;;;;;25.38;13.60;;;;;;;5.31;65.76;95809.88;5038304;28;20033;-71
2021/04/25 06:09:51;;;;;;;33.20;15.48;;;;;;;5.29;65.96;95809.34;5044543;28;20109;-71
2021/04/25 06:12:17;;;;;;;26.60;14.35;;;;;;;5.41;65.30;95808.53;5047299;28;20116;-70
2021/04/25 06:14:43;;;;;;;32.55;16.20;;;;;;;5.43;65.58;95809.09;5040461;28;20033;-71
2021/04/25 06:17:10;;;;;;;30.77;15.32;;;;;;;5.46;65.81;95806.00;5043580;28;20041;-70
2021/04/25 06:19:36;;;;;;;26.48;15.55;;;;;;;5.35;65.46;95808.41;5045600;28;20056;-70
2021/04/25 06:22:04;;;;;;;33.40;15.23;;;;;;;5.44;65.92;95805.47;5033910;28;20490;-71
2021/04/25 06:24:29;;;;;;;26.88;14.55;;;;;;;5.64;64.83;95811.09;5034245;28;20052;-70
2021/04/25 06:26:55;;;;;;;27.98;15.32;;;;;;;5.76;64.17;95813.72;5050828;28;20037;-70
2021/04/25 06:29:21;;;;;;;32.53;16.02;;;;;;;5.78;64.40;95816.88;5050626;28;20044;-70
2021/04/25 06:31:46;;;;;;;29.73;15.73;;;;;;;5.82;64.83;95817.19;5044402;28;20033;-71
2021/04/25 06:34:12;;;;;;;26.67;14.98;;;;;;;5.83;64.49;95808.34;5040095;28;20033;-69
2021/04/25 06:36:41;;;;;;;29.50;16.58;;;;;;;5.86;64.10;95818.31;5037927;28;20037;-70
2021/04/25 06:39:08;;;;;;;27.60;15.90;;;;;;;5.95;63.81;95814.31;5042285;28;20525;-69
2021/04/25 06:41:34;;;;;;;28.10;15.88;;;;;;;6.09;63.20;95816.69;5045875;28;20091;-69
2021/04/25 06:44:00;;;;;;;29.48;16.23;;;;;;;6.01;63.28;95821.25;5032516;28;20045;-69
2021/04/25 06:46:27;;;;;;;29.25;16.08;;;;;;;6.12;63.03;95824.06;5034493;28;20040;-69
2021/04/25 06:48:53;;;;;;;26.65;16.35;;;;;;;6.25;62.68;95826.41;5046347;28;20037;-70
2021/04/25 06:51:19;;;;;;;31.05;16.00;;;;;;;6.35;62.11;95831.81;5033523;28;20041;-70
2021/04/25 06:53:44;;;;;;;26.90;16.33;;;;;;;6.45;62.04;95835.63;5038407;28;20095;-70
2021/04/25 06:56:10;;;;;;;26.40;15.13;;;;;;;6.52;62.37;95842.31;5050518;28;20117;-70
2021/04/25 06:58:35;;;;;;;34.88;16.60;;;;;;;6.53;61.82;95837.88;5039499;28;20049;-70
2021/04/25 07:01:01;;;;;;;29.58;16.40;;;;;;;6.45;62.43;95835.63;5045175;28;20037;-70
2021/04/25 07:03:27;;;;;;;31.27;16.55;;;;;;;6.40;62.36;95838.97;5045243;28;20152;-70
2021/04/25 07:05:53;;;;;;;34.30;17.52;;;;;;;6.38;61.90;95836.56;5048474;28;20439;-70
2021/04/25 07:08:20;;;;;;;31.77;16.67;;;;;;;6.36;62.30;95838.63;5046970;28;20418;-69
2021/04/25 07:10:45;;;;;;;28.30;16.08;;;;;;;6.45;62.59;95848.72;5039627;28;20044;-70
2021/04/25 07:13:11;;;;;;;30.45;16.05;;;;;;;6.59;61.54;95853.44;5039032;28;20036;-71
2021/04/25 07:15:36;;;;;;;30.25;16.85;;;;;;;6.61;62.43;95850.56;5043166;28;20045;-72
2021/04/25 07:18:02;;;;;;;29.33;16.45;;;;;;;6.73;61.05;95851.28;5041326;28;20052;-70
2021/04/25 07:20:28;;;;;;;29.20;15.95;;;;;;;6.88;61.03;95847.34;5042992;28;20046;-69
2021/04/25 07:22:53;;;;;;;28.35;16.30;;;;;;;6.86;60.15;95852.03;5034563;28;20522;-71
2021/04/25 07:25:19;;;;;;;30.23;15.95;;;;;;;7.01;59.58;95849.66;5042668;28;20041;-70
2021/04/25 07:27:44;;;;;;;29.33;15.75;;;;;;;7.24;59.59;95848.69;5033686;28;20038;-70
2021/04/25 07:30:11;;;;;;;25.95;16.00;;;;;;;7.23;59.28;95841.09;5047560;28;20038;-69
2021/04/25 07:32:38;;;;;;;27.88;15.80;;;;;;;7.10;60.59;95845.59;5041774;28;20499;-70
2021/04/25 07:35:05;;;;;;;30.15;16.23;;;;;;;7.15;59.23;95844.09;5031840;28;20111;-69
2021/04/25 07:37:30;;;;;;;35.40;16.80;;;;;;;7.23;59.61;95856.78;5041812;28;20119;-70
2021/04/25 07:39:56;;;;;;;28.65;17.55;;;;;;;7.21;58.64;95853.59;5050374;28;20041;-69
2021/04/25 07:42:22;;;;;;;33.95;16.58;;;;;;;7.16;59.20;95845.69;5047994;28;20103;-70
2021/04/25 07:44:47;;;;;;;27.58;16.60;;;;;;;7.11;59.15;95849.81;5046515;28;20042;-70
2021/04/25 07:47:13;;;;;;;30.10;16.48;;;;;;;7.24;59.10;95853.13;5041238;28;20506;-71
2021/04/25 07:49:39;;;;;;;31.00;16.35;;;;;;;7.42;58.86;95854.69;5035381;28;20048;-70
2021/04/25 07:52:05;;;;;;;28.85;16.92;;;;;;;7.39;58.61;95857.81;5049421;28;20047;-70
2021/04/25 07:54:31;;;;;;;32.05;17.65;;;;;;;7.44;59.00;95861.28;5049110;28;20053;-70
2021/04/25 07:56:58;;;;;;;30.75;16.17;;;;;;;7.52;58.23;95864.53;5037126;28;20037;-70
2021/04/25 07:59:24;;;;;;;29.48;16.80;;;;;;;7.65;58.22;95858.94;5030732;28;20044;-70
2021/04/25 08:01:50;;;;;;;29.77;16.55;;;;;;;7.85;55.88;95865.50;5040906;28;20045;-69
2021/04/25 08:04:16;;;;;;;31.17;15.98;;;;;;;7.93;55.41;95859.81;5035440;28;20053;-70
2021/04/25 08:06:42;;;;;;;30.30;15.95;;;;;;;7.87;56.22;95858.19;5042519;28;20064;-71
2021/04/25 08:09:08;;;;;;;28.98;16.77;;;;;;;7.92;55.61;95858.25;5037582;28;20041;-69
2021/04/25 08:11:33;;;;;;;30.90;16.23;;;;;;;8.02;55.88;95862.81;5045677;28;20110;-71
2021/04/25 08:13:59;;;;;;;27.15;16.35;;;;;;;8.09;54.87;95864.22;5051067;28;20045;-70
2021/04/25 08:16:25;;;;;;;28.55;14.80;;;;;;;8.20;54.12;95861.72;5041794;28;20056;-70
2021/04/25 08:18:51;;;;;;;27.83;14.48;;;;;;;8.55;52.83;95861.34;5040674;28;20038;-72
2021/04/25 08:21:16;;;;;;;34.20;17.02;;;;;;;8.47;53.95;95859.94;5042102;28;20784;-69
2021/04/25 08:23:42;;;;;;;25.65;15.25;;;;;;;8.53;52.44;95857.38;5042097;28;20044;-70
2021/04/25 08:26:07;;;;;;;27.33;16.20;;;;;;;8.41;54.67;95854.88;5040107;28;20048;-71
2021/04/25 08:28:34;;;;;;;25.75;14.80;;;;;;;8.68;51.27;95854.91;5042383;28;20056;-70
2021/04/25 08:30:59;;;;;;;31.27;15.23;;;;;;;8.94;52.01;95847.25;5043709;28;20057;-71
2021/04/25 08:33:25;;;;;;;32.33;16.02;;;;;;;8.94;52.23;95853.28;5048982;28;20041;-71
2021/04/25 08:35:50;;;;;;;26.02;14.60;;;;;;;9.02;52.52;95846.78;5044820;28;20033;-71
2021/04/25 08:38:16;;;;;;;28.98;15.60;;;;;;;9.02;51.04;95852.03;5045639;28;20484;-72
2021/04/25 08:40:42;;;;;;;29.13;15.65;;;;;;;9.05;51.10;95851.53;5044938;28;20071;-72
2021/04/25 08:43:11;;;;;;;35.63;14.98;;;;;;;9.23;51.00;95849.56;5046027;28;20592;-70
2021/04/25 08:45:37;;;;;;;26.42;15.23;;;;;;;9.32;50.23;95850.66;5040929;28;20072;-70
2021/04/25 08:48:05;;;;;;;28.95;14.48;;;;;;;9.28;50.58;95841.72;5048485;28;20410;-70
2021/04/25 08:50:32;;;;;;;26.95;13.27;;;;;;;9.69;49.48;95847.22;5044920;28;20044;-71
2021/04/25 08:52:58;;;;;;;28.42;13.88;;;;;;;9.78;51.17;95839.63;5046232;28;20419;-70
2021/04/25 08:55:24;;;;;;;25.25;14.07;;;;;;;9.86;47.51;95837.31;5046906;28;20048;-71
2021/04/25 08:57:51;;;;;;;23.92;12.65;;;;;;;10.01;47.71;95835.78;5045262;28;20053;-69
2021/04/25 09:00:18;;;;;;;25.33;14.07;;;;;;;10.03;48.02;95841.59;5034417;28;20041;-70
2021/04/25 09:02:44;;;;;;;24.65;13.13;;;;;;;10.34;47.74;95836.47;5036165;28;20454;-71
2021/04/25 09:05:11;;;;;;;25.92;13.95;;;;;;;10.38;47.01;95838.31;5030515;28;20039;-71
2021/04/25 09:07:37;;;;;;;24.27;13.63;;;;;;;10.49;46.57;95833.88;5034403;28;20037;-71
2021/04/25 09:10:07;;;;;;;21.98;13.27;;;;;;;10.60;46.76;95833.88;5048799;28;20106;-70
2021/04/25 09:12:41;;;;;;;25.05;13.40;;;;;;;10.51;46.66;95837.03;5044231;28;20049;-72
2021/04/25 09:15:10;;;;;;;23.20;13.63;;;;;;;10.51;46.95;95844.91;5034261;28;20086;-71
2021/04/25 09:18:00;;;;;;;27.05;14.55;;;;;;;10.64;47.25;95840.22;5038547;28;20045;-70
2021/04/25 09:20:36;;;;;;;22.15;13.30;;;;;;;10.95;46.75;95832.31;5037979;28;20473;-69
2021/04/25 09:23:04;;;;;;;28.33;13.80;;;;;;;11.10;46.34;95832.31;5038856;28;20049;-70
2021/04/25 09:25:30;;;;;;;24.88;13.57;;;;;;;11.21;45.93;95833.91;5037120;28;20056;-74
2021/04/25 09:28:12;;;;;;;27.00;13.20;;;;;;;11.38;45.05;95827.56;5045855;28;20032;-73
2021/04/25 09:30:37;;;;;;;25.10;13.48;;;;;;;11.37;44.75;95826.00;5047460;28;20091;-72
2021/04/25 09:33:10;;;;;;;23.85;13.60;;;;;;;11.25;44.81;95834.19;5036422;28;20262;-71
2021/04/25 09:35:39;;;;;;;25.10;13.95;;;;;;;11.57;45.07;95828.56;5031751;28;20522;-70
2021/04/25 09:38:12;;;;;;;25.08;13.82;;;;;;;11.74;44.39;95830.13;5034292;28;20041;-71
2021/04/25 09:40:44;;;;;;;23.93;13.40;;;;;;;11.77;44.17;95821.69;5045465;28;20253;-71
2021/04/25 09:43:15;;;;;;;25.10;13.55;;;;;;;11.68;45.31;95831.19;5039837;28;20053;-68
2021/04/25 09:45:49;;;;;;;25.92;13.32;;;;;;;11.85;42.96;95829.03;5036169;28;20037;-70
2021/04/25 09:48:31;;;;;;;22.77;13.43;;;;;;;12.09;43.66;95831.06;5050973;28;20052;-71
2021/04/25 09:51:17;;;;;;;29.05;14.25;;;;;;;12.02;42.69;95825.31;5051210;28;20049;-72
2021/04/25 09:53:48;;;;;;;30.75;13.55;;;;;;;12.09;43.37;95831.06;5044786;28;20033;-72
2021/04/25 09:56:14;;;;;;;25.13;12.88;;;;;;;12.31;42.88;95828.06;5045818;28;20041;-77
2021/04/25 09:58:58;;;;;;;25.60;13.32;;;;;;;12.35;43.83;95823.81;5050189;28;20061;-70
2021/04/25 10:01:39;;;;;;;22.92;12.80;;;;;;;12.75;42.43;95821.22;5035846;28;20091;-69
2021/04/25 10:04:26;;;;;;;25.20;12.60;;;;;;;12.78;40.84;95815.38;5036256;28;20318;-70
2021/04/25 10:06:55;;;;;;;20.13;11.30;;;;;;;13.31;40.30;95818.09;5033452;28;20044;-71
2021/04/25 10:09:21;;;;;;;20.33;11.80;;;;;;;13.42;40.02;95818.00;5034113;28;20046;-72
2021/04/25 10:11:48;;;;;;;19.05;11.15;;;;;;;13.78;39.31;95812.38;5052633;28;20091;-72
2021/04/25 10:14:14;;;;;;;19.30;11.35;;;;;;;13.92;38.19;95821.22;5051756;28;20052;-70
2021/04/25 10:16:42;;;;;;;21.75;11.23;;;;;;;13.92;38.01;95823.84;5048045;28;20037;-69
2021/04/25 10:19:09;;;;;;;21.30;12.88;;;;;;;14.15;37.80;95818.78;5044891;28;20049;-68
2021/04/25 10:21:36;;;;;;;22.42;12.52;;;;;;;14.89;37.21;95810.38;5046364;28;20080;-70
2021/04/25 10:24:03;;;;;;;22.23;12.45;;;;;;;16.04;34.86;95822.16;5033575;28;20041;-69
2021/04/25 10:26:35;;;;;;;22.17;13.02;;;;;;;15.64;34.67;95824.47;5039052;28;20112;-70
2021/04/25 10:29:05;;;;;;;25.80;12.57;;;;;;;16.70;33.36;95816.50;5033831;28;20518;-69
2021/04/25 10:31:35;;;;;;;21.70;13.30;;;;;;;15.91;33.99;95820.31;5041472;28;20036;-69
2021/04/25 10:34:05;;;;;;;21.00;12.30;;;;;;;17.22;31.62;95804.69;5049571;28;20414;-69
2021/04/25 10:36:46;;;;;;;22.63;13.07;;;;;;;17.82;31.95;95806.84;5048204;28;20037;-69
2021/04/25 10:39:50;;;;;;;18.40;11.90;;;;;;;17.38;31.70;95811.19;5033990;28;20041;-70
2021/04/25 10:42:25;;;;;;;21.13;12.13;;;;;;;18.28;30.41;95806.69;5034721;28;20498;-70
2021/04/25 10:45:02;;;;;;;21.85;12.98;;;;;;;18.45;30.87;95804.03;5037357;28;20088;-70
2021/04/25 10:47:36;;;;;;;21.45;11.68;;;;;;;17.49;31.73;95801.09;5041745;28;20041;-71
2021/04/25 10:50:22;;;;;;;20.60;11.63;;;;;;;16.72;33.85;95801.06;5033375;28;20071;-70
2021/04/25 10:52:50;;;;;;;20.90;12.55;;;;;;;17.31;31.56;95797.53;5029296;28;20053;-70
2021/04/25 10:55:33;;;;;;;23.20;12.95;;;;;;;17.95;30.06;95793.75;5042538;28;20052;-70
2021/04/25 10:58:04;;;;;;;18.88;11.60;;;;;;;19.19;29.47;95802.28;5041746;28;20037;-70
2021/04/25 11:00:30;;;;;;;21.10;13.25;;;;;;;19.42;27.23;95793.28;5032951;28;20052;-70
2021/04/25 11:03:00;;;;;;;18.55;12.75;;;;;;;19.64;28.12;95789.56;5033181;28;20038;-70
2021/04/25 11:05:35;;;;;;;23.75;13.27;;;;;;;21.18;27.14;95794.53;5033143;28;20045;-70
2021/04/25 11:08:03;;;;;;;21.45;12.95;;;;;;;20.82;25.53;95782.59;5035610;28;20045;-70
2021/04/25 11:11:01;;;;;;;21.35;12.73;;;;;;;20.34;27.56;95794.56;5051395;28;20041;-69
2021/04/25 11:13:33;;;;;;;20.73;13.45;;;;;;;17.17;31.96;95786.19;5033195;28;20554;-69
2021/04/25 11:16:02;;;;;;;26.60;13.80;;;;;;;18.70;28.88;95791.00;5047697;28;20048;-69
2021/04/25 11:18:54;;;;;;;25.45;14.52;;;;;;;20.11;27.68;95792.19;5044964;28;20044;-69
2021/04/25 11:21:42;;;;;;;29.23;13.98;;;;;;;20.20;26.65;95795.63;5044098;28;20115;-72
2021/04/25 11:24:08;;;;;;;21.38;13.00;;;;;;;19.71;27.69;95784.50;5040480;28;20100;-70
2021/04/25 11:26:34;;;;;;;20.05;12.00;;;;;;;16.83;31.33;95792.84;5044008;28;20049;-70
2021/04/25 11:29:01;;;;;;;20.15;11.43;;;;;;;16.20;32.43;95787.34;5041314;28;20049;-69